sensor_id;sensor_type;location;lat;lon;timestamp;P1;durP1;ratioP1;P2;durP2;ratioP2
5569;SDS011;2808;51.240;6.794;2023-06-01T00:01:17;5.10;;;2.53;;
5569;SDS011;2808;51.240;6.794;2023-06-01T00:03:46;7.23;;;2.70;;
5569;SDS011;2808;51.240;6.794;2023-06-01T00:06:15;8.13;;;2.60;;
5569;SDS011;2808;51.240;6.794;2023-06-01T00:08:42;11.43;;;2.93;;
5569;SDS011;2808;51.240;6.794;2023-06-01T00:11:10;9.40;;;2.70;;
5569;SDS011;2808;51.240;6.794;2023-06-01T00:13:37;12.70;;;3.40;;
5569;SDS011;2808;51.240;6.794;2023-06-01T00:16:05;8.37;;;2.83;;
5569;SDS011;2808;51.240;6.794;2023-06-01T00:18:33;7.93;;;2.90;;
5569;SDS011;2808;51.240;6.794;2023-06-01T00:21:00;7.27;;;3.10;;
5569;SDS011;2808;51.240;6.794;2023-06-01T00:23:29;19.63;;;3.00;;
5569;SDS011;2808;51.240;6.794;2023-06-01T00:25:57;11.30;;;2.97;;
5569;SDS011;2808;51.240;6.794;2023-06-01T00:28:25;10.80;;;3.10;;
5569;SDS011;2808;51.240;6.794;2023-06-01T00:30:53;7.07;;;2.60;;
5569;SDS011;2808;51.240;6.794;2023-06-01T00:33:20;9.50;;;3.47;;
5569;SDS011;2808;51.240;6.794;2023-06-01T00:35:48;8.40;;;3.10;;
5569;SDS011;2808;51.240;6.794;2023-06-01T00:38:15;8.67;;;3.43;;
5569;SDS011;2808;51.240;6.794;2023-06-01T00:40:44;11.00;;;3.50;;
5569;SDS011;2808;51.240;6.794;2023-06-01T00:43:15;7.53;;;3.40;;
5569;SDS011;2808;51.240;6.794;2023-06-01T00:45:43;12.33;;;3.63;;
5569;SDS011;2808;51.240;6.794;2023-06-01T00:48:11;13.93;;;4.00;;
5569;SDS011;2808;51.240;6.794;2023-06-01T00:50:40;7.83;;;3.30;;
5569;SDS011;2808;51.240;6.794;2023-06-01T00:53:09;7.80;;;3.43;;
5569;SDS011;2808;51.240;6.794;2023-06-01T00:55:41;9.93;;;3.40;;
5569;SDS011;2808;51.240;6.794;2023-06-01T00:58:11;8.43;;;3.33;;
5569;SDS011;2808;51.240;6.794;2023-06-01T01:00:39;9.47;;;3.73;;
5569;SDS011;2808;51.240;6.794;2023-06-01T01:03:07;10.57;;;4.03;;
5569;SDS011;2808;51.240;6.794;2023-06-01T01:05:35;10.17;;;3.93;;
5569;SDS011;2808;51.240;6.794;2023-06-01T01:08:07;9.33;;;3.70;;
5569;SDS011;2808;51.240;6.794;2023-06-01T01:10:41;8.50;;;4.17;;
5569;SDS011;2808;51.240;6.794;2023-06-01T01:13:15;11.80;;;3.87;;
5569;SDS011;2808;51.240;6.794;2023-06-01T01:15:49;11.80;;;4.07;;
5569;SDS011;2808;51.240;6.794;2023-06-01T01:18:23;9.80;;;4.57;;
5569;SDS011;2808;51.240;6.794;2023-06-01T01:21:00;15.40;;;4.20;;
5569;SDS011;2808;51.240;6.794;2023-06-01T01:23:55;10.87;;;3.60;;
5569;SDS011;2808;51.240;6.794;2023-06-01T01:26:52;11.90;;;4.53;;
5569;SDS011;2808;51.240;6.794;2023-06-01T01:29:30;12.00;;;4.47;;
5569;SDS011;2808;51.240;6.794;2023-06-01T01:32:00;13.97;;;4.83;;
5569;SDS011;2808;51.240;6.794;2023-06-01T01:34:29;12.83;;;4.70;;
5569;SDS011;2808;51.240;6.794;2023-06-01T01:36:58;12.33;;;5.33;;
5569;SDS011;2808;51.240;6.794;2023-06-01T01:39:26;14.83;;;4.87;;
5569;SDS011;2808;51.240;6.794;2023-06-01T01:41:54;14.73;;;4.50;;
5569;SDS011;2808;51.240;6.794;2023-06-01T01:44:22;11.60;;;4.70;;
5569;SDS011;2808;51.240;6.794;2023-06-01T01:46:54;13.97;;;4.43;;
5569;SDS011;2808;51.240;6.794;2023-06-01T01:49:30;12.80;;;4.20;;
5569;SDS011;2808;51.240;6.794;2023-06-01T01:52:05;13.90;;;4.73;;
5569;SDS011;2808;51.240;6.794;2023-06-01T01:54:39;16.10;;;5.03;;
5569;SDS011;2808;51.240;6.794;2023-06-01T01:57:09;14.10;;;5.07;;
5569;SDS011;2808;51.240;6.794;2023-06-01T01:59:40;10.00;;;4.70;;
5569;SDS011;2808;51.240;6.794;2023-06-01T02:02:10;15.20;;;5.23;;
5569;SDS011;2808;51.240;6.794;2023-06-01T02:04:38;12.40;;;5.60;;
5569;SDS011;2808;51.240;6.794;2023-06-01T02:07:05;12.13;;;5.07;;
5569;SDS011;2808;51.240;6.794;2023-06-01T02:09:33;18.77;;;5.40;;
5569;SDS011;2808;51.240;6.794;2023-06-01T02:12:00;9.23;;;4.83;;
5569;SDS011;2808;51.240;6.794;2023-06-01T02:14:28;14.03;;;5.67;;
5569;SDS011;2808;51.240;6.794;2023-06-01T02:16:56;17.97;;;5.93;;
5569;SDS011;2808;51.240;6.794;2023-06-01T02:19:27;13.87;;;5.80;;
5569;SDS011;2808;51.240;6.794;2023-06-01T02:21:54;16.03;;;6.50;;
5569;SDS011;2808;51.240;6.794;2023-06-01T02:24:22;23.30;;;6.67;;
5569;SDS011;2808;51.240;6.794;2023-06-01T02:26:49;19.83;;;7.40;;
5569;SDS011;2808;51.240;6.794;2023-06-01T02:29:18;13.67;;;5.87;;
5569;SDS011;2808;51.240;6.794;2023-06-01T02:31:47;11.33;;;6.53;;
5569;SDS011;2808;51.240;6.794;2023-06-01T02:34:15;12.90;;;6.60;;
5569;SDS011;2808;51.240;6.794;2023-06-01T02:36:44;17.90;;;6.90;;
5569;SDS011;2808;51.240;6.794;2023-06-01T02:39:13;18.07;;;7.70;;
5569;SDS011;2808;51.240;6.794;2023-06-01T02:41:41;14.73;;;7.23;;
5569;SDS011;2808;51.240;6.794;2023-06-01T02:44:08;14.47;;;7.90;;
5569;SDS011;2808;51.240;6.794;2023-06-01T02:46:35;18.23;;;8.00;;
5569;SDS011;2808;51.240;6.794;2023-06-01T02:49:03;18.73;;;8.37;;
5569;SDS011;2808;51.240;6.794;2023-06-01T02:51:30;20.30;;;8.80;;
5569;SDS011;2808;51.240;6.794;2023-06-01T02:53:59;12.83;;;7.80;;
5569;SDS011;2808;51.240;6.794;2023-06-01T02:56:27;15.60;;;8.50;;
5569;SDS011;2808;51.240;6.794;2023-06-01T02:58:55;16.97;;;8.00;;
5569;SDS011;2808;51.240;6.794;2023-06-01T03:01:22;23.03;;;9.30;;
5569;SDS011;2808;51.240;6.794;2023-06-01T03:03:51;18.00;;;7.97;;
5569;SDS011;2808;51.240;6.794;2023-06-01T03:06:19;16.17;;;7.80;;
5569;SDS011;2808;51.240;6.794;2023-06-01T03:08:47;15.53;;;8.37;;
5569;SDS011;2808;51.240;6.794;2023-06-01T03:11:16;22.57;;;7.97;;
5569;SDS011;2808;51.240;6.794;2023-06-01T03:13:43;19.87;;;7.87;;
5569;SDS011;2808;51.240;6.794;2023-06-01T03:16:11;22.43;;;9.37;;
5569;SDS011;2808;51.240;6.794;2023-06-01T03:18:38;18.90;;;8.73;;
5569;SDS011;2808;51.240;6.794;2023-06-01T03:21:05;21.07;;;9.23;;
5569;SDS011;2808;51.240;6.794;2023-06-01T03:23:33;17.43;;;9.23;;
5569;SDS011;2808;51.240;6.794;2023-06-01T03:26:00;16.87;;;10.17;;
5569;SDS011;2808;51.240;6.794;2023-06-01T03:28:30;22.30;;;10.60;;
5569;SDS011;2808;51.240;6.794;2023-06-01T03:30:58;26.33;;;10.63;;
5569;SDS011;2808;51.240;6.794;2023-06-01T03:33:26;21.60;;;9.57;;
5569;SDS011;2808;51.240;6.794;2023-06-01T03:35:54;23.20;;;8.97;;
5569;SDS011;2808;51.240;6.794;2023-06-01T03:38:21;16.07;;;9.00;;
5569;SDS011;2808;51.240;6.794;2023-06-01T03:40:48;20.73;;;9.83;;
5569;SDS011;2808;51.240;6.794;2023-06-01T03:43:16;19.50;;;9.90;;
5569;SDS011;2808;51.240;6.794;2023-06-01T03:45:45;22.83;;;10.37;;
5569;SDS011;2808;51.240;6.794;2023-06-01T03:48:12;25.73;;;10.57;;
5569;SDS011;2808;51.240;6.794;2023-06-01T03:50:40;20.93;;;9.73;;
5569;SDS011;2808;51.240;6.794;2023-06-01T03:53:07;20.53;;;10.67;;
5569;SDS011;2808;51.240;6.794;2023-06-01T03:55:35;24.63;;;10.70;;
5569;SDS011;2808;51.240;6.794;2023-06-01T03:58:02;22.20;;;10.27;;
5569;SDS011;2808;51.240;6.794;2023-06-01T04:00:30;18.80;;;10.30;;
5569;SDS011;2808;51.240;6.794;2023-06-01T04:02:59;29.60;;;11.43;;
5569;SDS011;2808;51.240;6.794;2023-06-01T04:05:29;20.50;;;10.67;;
5569;SDS011;2808;51.240;6.794;2023-06-01T04:07:56;23.67;;;12.13;;
5569;SDS011;2808;51.240;6.794;2023-06-01T04:10:24;23.33;;;11.60;;
5569;SDS011;2808;51.240;6.794;2023-06-01T04:12:51;42.80;;;22.23;;
5569;SDS011;2808;51.240;6.794;2023-06-01T04:15:19;38.13;;;18.03;;
5569;SDS011;2808;51.240;6.794;2023-06-01T04:17:48;24.33;;;13.40;;
5569;SDS011;2808;51.240;6.794;2023-06-01T04:20:16;29.70;;;13.50;;
5569;SDS011;2808;51.240;6.794;2023-06-01T04:22:45;26.03;;;14.50;;
5569;SDS011;2808;51.240;6.794;2023-06-01T04:25:16;29.50;;;13.57;;
5569;SDS011;2808;51.240;6.794;2023-06-01T04:27:44;33.57;;;15.43;;
5569;SDS011;2808;51.240;6.794;2023-06-01T04:30:13;24.80;;;14.20;;
5569;SDS011;2808;51.240;6.794;2023-06-01T04:32:42;30.00;;;14.83;;
5569;SDS011;2808;51.240;6.794;2023-06-01T04:35:10;26.77;;;14.30;;
5569;SDS011;2808;51.240;6.794;2023-06-01T04:37:40;29.20;;;15.10;;
5569;SDS011;2808;51.240;6.794;2023-06-01T04:40:08;31.90;;;15.23;;
5569;SDS011;2808;51.240;6.794;2023-06-01T04:42:39;34.30;;;15.80;;
5569;SDS011;2808;51.240;6.794;2023-06-01T04:45:08;32.20;;;14.53;;
5569;SDS011;2808;51.240;6.794;2023-06-01T04:47:36;25.97;;;14.33;;
5569;SDS011;2808;51.240;6.794;2023-06-01T04:50:05;26.50;;;15.30;;
5569;SDS011;2808;51.240;6.794;2023-06-01T04:52:34;27.00;;;15.30;;
5569;SDS011;2808;51.240;6.794;2023-06-01T04:55:04;26.93;;;15.20;;
5569;SDS011;2808;51.240;6.794;2023-06-01T04:57:33;28.83;;;14.77;;
5569;SDS011;2808;51.240;6.794;2023-06-01T05:00:04;27.20;;;16.83;;
5569;SDS011;2808;51.240;6.794;2023-06-01T05:02:36;29.33;;;15.27;;
5569;SDS011;2808;51.240;6.794;2023-06-01T05:05:04;30.43;;;16.97;;
5569;SDS011;2808;51.240;6.794;2023-06-01T05:07:32;37.93;;;17.10;;
5569;SDS011;2808;51.240;6.794;2023-06-01T05:10:01;40.50;;;17.93;;
5569;SDS011;2808;51.240;6.794;2023-06-01T05:12:31;30.00;;;16.67;;
5569;SDS011;2808;51.240;6.794;2023-06-01T05:14:59;35.67;;;17.27;;
5569;SDS011;2808;51.240;6.794;2023-06-01T05:17:31;29.77;;;16.97;;
5569;SDS011;2808;51.240;6.794;2023-06-01T05:19:58;26.53;;;16.87;;
5569;SDS011;2808;51.240;6.794;2023-06-01T05:22:25;30.80;;;17.50;;
5569;SDS011;2808;51.240;6.794;2023-06-01T05:24:55;33.53;;;17.60;;
5569;SDS011;2808;51.240;6.794;2023-06-01T05:27:24;39.70;;;18.80;;
5569;SDS011;2808;51.240;6.794;2023-06-01T05:29:51;35.90;;;18.07;;
5569;SDS011;2808;51.240;6.794;2023-06-01T05:32:22;40.07;;;19.00;;
5569;SDS011;2808;51.240;6.794;2023-06-01T05:34:54;30.70;;;17.67;;
5569;SDS011;2808;51.240;6.794;2023-06-01T05:37:26;30.50;;;17.50;;
5569;SDS011;2808;51.240;6.794;2023-06-01T05:39:56;32.50;;;17.90;;
5569;SDS011;2808;51.240;6.794;2023-06-01T05:42:30;32.87;;;17.27;;
5569;SDS011;2808;51.240;6.794;2023-06-01T05:44:57;28.30;;;17.17;;
5569;SDS011;2808;51.240;6.794;2023-06-01T05:47:27;29.40;;;17.30;;
5569;SDS011;2808;51.240;6.794;2023-06-01T05:49:56;39.23;;;19.60;;
5569;SDS011;2808;51.240;6.794;2023-06-01T05:52:23;41.33;;;20.57;;
5569;SDS011;2808;51.240;6.794;2023-06-01T05:54:51;33.93;;;18.60;;
5569;SDS011;2808;51.240;6.794;2023-06-01T05:57:18;33.53;;;17.93;;
5569;SDS011;2808;51.240;6.794;2023-06-01T05:59:48;32.80;;;19.10;;
5569;SDS011;2808;51.240;6.794;2023-06-01T06:02:15;34.00;;;17.50;;
5569;SDS011;2808;51.240;6.794;2023-06-01T06:04:42;31.23;;;18.47;;
5569;SDS011;2808;51.240;6.794;2023-06-01T06:07:10;33.93;;;20.00;;
5569;SDS011;2808;51.240;6.794;2023-06-01T06:09:37;35.20;;;17.83;;
5569;SDS011;2808;51.240;6.794;2023-06-01T06:12:06;32.10;;;17.43;;
5569;SDS011;2808;51.240;6.794;2023-06-01T06:14:33;33.03;;;18.50;;
5569;SDS011;2808;51.240;6.794;2023-06-01T06:17:02;30.63;;;18.77;;
5569;SDS011;2808;51.240;6.794;2023-06-01T06:19:30;31.03;;;17.40;;
5569;SDS011;2808;51.240;6.794;2023-06-01T06:21:57;31.70;;;18.43;;
5569;SDS011;2808;51.240;6.794;2023-06-01T06:24:25;36.13;;;17.80;;
5569;SDS011;2808;51.240;6.794;2023-06-01T06:26:52;32.97;;;16.57;;
5569;SDS011;2808;51.240;6.794;2023-06-01T06:29:19;30.90;;;17.57;;
5569;SDS011;2808;51.240;6.794;2023-06-01T06:31:47;26.03;;;15.07;;
5569;SDS011;2808;51.240;6.794;2023-06-01T06:34:17;28.03;;;16.27;;
5569;SDS011;2808;51.240;6.794;2023-06-01T06:36:44;29.60;;;16.63;;
5569;SDS011;2808;51.240;6.794;2023-06-01T06:39:12;30.17;;;16.67;;
5569;SDS011;2808;51.240;6.794;2023-06-01T06:41:40;43.20;;;15.80;;
5569;SDS011;2808;51.240;6.794;2023-06-01T06:44:07;33.73;;;18.90;;
5569;SDS011;2808;51.240;6.794;2023-06-01T06:46:35;31.33;;;18.40;;
5569;SDS011;2808;51.240;6.794;2023-06-01T06:49:02;35.30;;;18.87;;
5569;SDS011;2808;51.240;6.794;2023-06-01T06:51:35;37.70;;;18.20;;
5569;SDS011;2808;51.240;6.794;2023-06-01T06:54:04;31.87;;;18.20;;
5569;SDS011;2808;51.240;6.794;2023-06-01T06:56:31;31.53;;;17.93;;
5569;SDS011;2808;51.240;6.794;2023-06-01T06:58:59;33.50;;;18.33;;
5569;SDS011;2808;51.240;6.794;2023-06-01T07:01:26;38.90;;;19.17;;
5569;SDS011;2808;51.240;6.794;2023-06-01T07:03:54;30.70;;;18.10;;
5569;SDS011;2808;51.240;6.794;2023-06-01T07:06:21;30.53;;;19.73;;
5569;SDS011;2808;51.240;6.794;2023-06-01T07:08:50;31.73;;;18.97;;
5569;SDS011;2808;51.240;6.794;2023-06-01T07:11:18;29.00;;;17.90;;
5569;SDS011;2808;51.240;6.794;2023-06-01T07:13:46;26.83;;;16.87;;
5569;SDS011;2808;51.240;6.794;2023-06-01T07:16:13;26.67;;;15.67;;
5569;SDS011;2808;51.240;6.794;2023-06-01T07:18:41;27.77;;;18.17;;
5569;SDS011;2808;51.240;6.794;2023-06-01T07:21:08;31.13;;;18.27;;
5569;SDS011;2808;51.240;6.794;2023-06-01T07:23:35;28.30;;;18.50;;
5569;SDS011;2808;51.240;6.794;2023-06-01T07:26:04;35.50;;;19.63;;
5569;SDS011;2808;51.240;6.794;2023-06-01T07:28:31;25.90;;;17.30;;
5569;SDS011;2808;51.240;6.794;2023-06-01T07:30:59;28.17;;;17.00;;
5569;SDS011;2808;51.240;6.794;2023-06-01T07:33:27;27.57;;;16.20;;
5569;SDS011;2808;51.240;6.794;2023-06-01T07:35:54;27.40;;;18.00;;
5569;SDS011;2808;51.240;6.794;2023-06-01T07:38:23;30.60;;;15.67;;
5569;SDS011;2808;51.240;6.794;2023-06-01T07:40:51;23.90;;;14.53;;
5569;SDS011;2808;51.240;6.794;2023-06-01T07:43:20;29.77;;;17.67;;
5569;SDS011;2808;51.240;6.794;2023-06-01T07:45:47;26.70;;;18.13;;
5569;SDS011;2808;51.240;6.794;2023-06-01T07:48:15;30.63;;;17.23;;
5569;SDS011;2808;51.240;6.794;2023-06-01T07:50:42;30.20;;;17.80;;
5569;SDS011;2808;51.240;6.794;2023-06-01T07:53:10;31.00;;;16.07;;
5569;SDS011;2808;51.240;6.794;2023-06-01T07:55:37;23.30;;;14.10;;
5569;SDS011;2808;51.240;6.794;2023-06-01T07:58:04;27.73;;;16.60;;
5569;SDS011;2808;51.240;6.794;2023-06-01T08:00:33;21.60;;;14.93;;
5569;SDS011;2808;51.240;6.794;2023-06-01T08:03:01;39.57;;;21.17;;
5569;SDS011;2808;51.240;6.794;2023-06-01T08:05:31;32.40;;;19.30;;
5569;SDS011;2808;51.240;6.794;2023-06-01T08:08:01;28.73;;;18.67;;
5569;SDS011;2808;51.240;6.794;2023-06-01T08:10:29;29.87;;;19.20;;
5569;SDS011;2808;51.240;6.794;2023-06-01T08:12:56;30.40;;;20.10;;
5569;SDS011;2808;51.240;6.794;2023-06-01T08:15:24;33.97;;;19.40;;
5569;SDS011;2808;51.240;6.794;2023-06-01T08:17:54;27.87;;;17.97;;
5569;SDS011;2808;51.240;6.794;2023-06-01T08:20:22;34.27;;;19.80;;
5569;SDS011;2808;51.240;6.794;2023-06-01T08:22:51;28.00;;;18.20;;
5569;SDS011;2808;51.240;6.794;2023-06-01T08:25:23;31.80;;;18.63;;
5569;SDS011;2808;51.240;6.794;2023-06-01T08:27:50;36.97;;;19.57;;
5569;SDS011;2808;51.240;6.794;2023-06-01T08:30:18;33.53;;;19.30;;
5569;SDS011;2808;51.240;6.794;2023-06-01T08:32:45;31.30;;;20.00;;
5569;SDS011;2808;51.240;6.794;2023-06-01T08:35:15;32.07;;;19.83;;
5569;SDS011;2808;51.240;6.794;2023-06-01T08:37:43;31.40;;;18.43;;
5569;SDS011;2808;51.240;6.794;2023-06-01T08:40:13;32.10;;;19.80;;
5569;SDS011;2808;51.240;6.794;2023-06-01T08:42:43;30.73;;;18.67;;
5569;SDS011;2808;51.240;6.794;2023-06-01T08:45:18;29.13;;;17.83;;
5569;SDS011;2808;51.240;6.794;2023-06-01T08:47:46;36.40;;;18.07;;
5569;SDS011;2808;51.240;6.794;2023-06-01T08:50:16;33.30;;;20.13;;
5569;SDS011;2808;51.240;6.794;2023-06-01T08:52:44;35.63;;;21.17;;
5569;SDS011;2808;51.240;6.794;2023-06-01T08:55:13;36.03;;;21.93;;
5569;SDS011;2808;51.240;6.794;2023-06-01T08:57:41;41.03;;;24.83;;
5569;SDS011;2808;51.240;6.794;2023-06-01T09:00:11;42.27;;;25.27;;
5569;SDS011;2808;51.240;6.794;2023-06-01T09:02:39;43.47;;;28.30;;
5569;SDS011;2808;51.240;6.794;2023-06-01T09:05:08;52.00;;;30.50;;
5569;SDS011;2808;51.240;6.794;2023-06-01T09:07:37;50.80;;;28.67;;
5569;SDS011;2808;51.240;6.794;2023-06-01T09:10:05;43.60;;;29.90;;
5569;SDS011;2808;51.240;6.794;2023-06-01T09:12:33;42.50;;;28.63;;
5569;SDS011;2808;51.240;6.794;2023-06-01T09:15:07;46.93;;;29.17;;
5569;SDS011;2808;51.240;6.794;2023-06-01T09:17:36;55.07;;;32.40;;
5569;SDS011;2808;51.240;6.794;2023-06-01T09:20:04;50.60;;;31.03;;
5569;SDS011;2808;51.240;6.794;2023-06-01T09:22:42;49.57;;;30.47;;
5569;SDS011;2808;51.240;6.794;2023-06-01T09:25:11;45.00;;;29.97;;
5569;SDS011;2808;51.240;6.794;2023-06-01T09:27:44;45.43;;;29.33;;
5569;SDS011;2808;51.240;6.794;2023-06-01T09:30:13;49.33;;;28.27;;
5569;SDS011;2808;51.240;6.794;2023-06-01T09:32:41;48.50;;;28.07;;
5569;SDS011;2808;51.240;6.794;2023-06-01T09:35:12;46.17;;;26.73;;
5569;SDS011;2808;51.240;6.794;2023-06-01T09:37:53;39.53;;;25.70;;
5569;SDS011;2808;51.240;6.794;2023-06-01T09:40:22;40.53;;;25.97;;
5569;SDS011;2808;51.240;6.794;2023-06-01T09:42:49;44.70;;;27.00;;
5569;SDS011;2808;51.240;6.794;2023-06-01T09:45:18;39.63;;;25.20;;
5569;SDS011;2808;51.240;6.794;2023-06-01T09:47:47;39.30;;;24.70;;
5569;SDS011;2808;51.240;6.794;2023-06-01T09:50:34;39.73;;;26.90;;
5569;SDS011;2808;51.240;6.794;2023-06-01T09:53:04;40.67;;;27.70;;
5569;SDS011;2808;51.240;6.794;2023-06-01T09:55:32;49.70;;;23.97;;
5569;SDS011;2808;51.240;6.794;2023-06-01T09:58:16;38.13;;;23.07;;
5569;SDS011;2808;51.240;6.794;2023-06-01T10:00:45;34.57;;;21.57;;
5569;SDS011;2808;51.240;6.794;2023-06-01T10:03:14;29.63;;;19.20;;
5569;SDS011;2808;51.240;6.794;2023-06-01T10:05:42;40.20;;;23.60;;
5569;SDS011;2808;51.240;6.794;2023-06-01T10:08:12;34.10;;;20.70;;
5569;SDS011;2808;51.240;6.794;2023-06-01T10:10:42;33.23;;;19.93;;
5569;SDS011;2808;51.240;6.794;2023-06-01T10:13:10;37.60;;;21.60;;
5569;SDS011;2808;51.240;6.794;2023-06-01T10:15:38;39.17;;;22.90;;
5569;SDS011;2808;51.240;6.794;2023-06-01T10:18:09;37.10;;;21.27;;
5569;SDS011;2808;51.240;6.794;2023-06-01T10:20:37;36.63;;;22.30;;
5569;SDS011;2808;51.240;6.794;2023-06-01T10:23:05;37.07;;;21.50;;
5569;SDS011;2808;51.240;6.794;2023-06-01T10:25:35;32.67;;;18.27;;
5569;SDS011;2808;51.240;6.794;2023-06-01T10:28:08;30.60;;;17.80;;
5569;SDS011;2808;51.240;6.794;2023-06-01T10:30:37;31.17;;;16.70;;
5569;SDS011;2808;51.240;6.794;2023-06-01T10:33:07;28.67;;;16.50;;
5569;SDS011;2808;51.240;6.794;2023-06-01T10:38:46;33.57;;;17.30;;
5569;SDS011;2808;51.240;6.794;2023-06-01T10:41:28;25.90;;;13.50;;
5569;SDS011;2808;51.240;6.794;2023-06-01T10:43:57;21.20;;;11.70;;
5569;SDS011;2808;51.240;6.794;2023-06-01T10:49:16;19.53;;;11.10;;
5569;SDS011;2808;51.240;6.794;2023-06-01T10:51:44;22.23;;;11.43;;
5569;SDS011;2808;51.240;6.794;2023-06-01T10:54:24;19.17;;;9.77;;
5569;SDS011;2808;51.240;6.794;2023-06-01T11:02:51;24.70;;;10.23;;
5569;SDS011;2808;51.240;6.794;2023-06-01T11:05:33;26.20;;;9.87;;
5569;SDS011;2808;51.240;6.794;2023-06-01T11:08:05;18.07;;;8.73;;
5569;SDS011;2808;51.240;6.794;2023-06-01T11:10:53;19.80;;;9.50;;
5569;SDS011;2808;51.240;6.794;2023-06-01T11:13:25;23.33;;;9.20;;
5569;SDS011;2808;51.240;6.794;2023-06-01T11:18:54;20.60;;;7.37;;
5569;SDS011;2808;51.240;6.794;2023-06-01T11:21:24;21.63;;;9.10;;
5569;SDS011;2808;51.240;6.794;2023-06-01T11:23:53;18.17;;;7.70;;
5569;SDS011;2808;51.240;6.794;2023-06-01T11:26:22;20.77;;;8.57;;
5569;SDS011;2808;51.240;6.794;2023-06-01T11:28:52;24.63;;;9.00;;
5569;SDS011;2808;51.240;6.794;2023-06-01T11:31:32;18.67;;;8.07;;
5569;SDS011;2808;51.240;6.794;2023-06-01T11:34:02;18.43;;;6.90;;
5569;SDS011;2808;51.240;6.794;2023-06-01T11:36:30;19.00;;;7.60;;
5569;SDS011;2808;51.240;6.794;2023-06-01T11:39:03;16.53;;;8.00;;
5569;SDS011;2808;51.240;6.794;2023-06-01T11:41:33;22.93;;;7.80;;
5569;SDS011;2808;51.240;6.794;2023-06-01T11:44:03;17.80;;;7.40;;
5569;SDS011;2808;51.240;6.794;2023-06-01T11:46:31;20.53;;;8.20;;
5569;SDS011;2808;51.240;6.794;2023-06-01T11:48:59;17.93;;;8.73;;
5569;SDS011;2808;51.240;6.794;2023-06-01T11:51:27;23.63;;;9.53;;
5569;SDS011;2808;51.240;6.794;2023-06-01T11:53:56;21.33;;;7.43;;
5569;SDS011;2808;51.240;6.794;2023-06-01T11:56:30;21.93;;;8.90;;
5569;SDS011;2808;51.240;6.794;2023-06-01T11:58:58;22.23;;;9.07;;
5569;SDS011;2808;51.240;6.794;2023-06-01T12:01:28;17.27;;;8.13;;
5569;SDS011;2808;51.240;6.794;2023-06-01T12:03:56;15.90;;;8.00;;
5569;SDS011;2808;51.240;6.794;2023-06-01T12:06:24;17.03;;;7.53;;
5569;SDS011;2808;51.240;6.794;2023-06-01T12:08:52;19.77;;;8.10;;
5569;SDS011;2808;51.240;6.794;2023-06-01T12:11:22;19.17;;;8.60;;
5569;SDS011;2808;51.240;6.794;2023-06-01T12:13:52;16.90;;;7.50;;
5569;SDS011;2808;51.240;6.794;2023-06-01T12:16:21;16.70;;;8.07;;
5569;SDS011;2808;51.240;6.794;2023-06-01T12:18:51;15.70;;;7.87;;
5569;SDS011;2808;51.240;6.794;2023-06-01T12:21:19;12.53;;;6.80;;
5569;SDS011;2808;51.240;6.794;2023-06-01T12:23:50;21.03;;;9.67;;
5569;SDS011;2808;51.240;6.794;2023-06-01T12:26:17;20.93;;;8.07;;
5569;SDS011;2808;51.240;6.794;2023-06-01T12:28:48;15.83;;;7.40;;
5569;SDS011;2808;51.240;6.794;2023-06-01T12:31:18;18.10;;;7.50;;
5569;SDS011;2808;51.240;6.794;2023-06-01T12:33:45;21.40;;;7.67;;
5569;SDS011;2808;51.240;6.794;2023-06-01T12:36:31;21.47;;;7.23;;
5569;SDS011;2808;51.240;6.794;2023-06-01T12:39:00;18.20;;;7.63;;
5569;SDS011;2808;51.240;6.794;2023-06-01T12:41:30;15.03;;;6.63;;
5569;SDS011;2808;51.240;6.794;2023-06-01T12:44:00;14.57;;;6.83;;
5569;SDS011;2808;51.240;6.794;2023-06-01T12:46:28;17.03;;;5.97;;
5569;SDS011;2808;51.240;6.794;2023-06-01T12:49:10;14.07;;;6.90;;
5569;SDS011;2808;51.240;6.794;2023-06-01T12:51:41;15.77;;;6.90;;
5569;SDS011;2808;51.240;6.794;2023-06-01T12:54:10;13.10;;;6.63;;
5569;SDS011;2808;51.240;6.794;2023-06-01T12:56:38;20.30;;;7.40;;
5569;SDS011;2808;51.240;6.794;2023-06-01T12:59:05;15.83;;;7.63;;
5569;SDS011;2808;51.240;6.794;2023-06-01T13:01:33;15.07;;;7.67;;
5569;SDS011;2808;51.240;6.794;2023-06-01T13:04:03;20.50;;;7.87;;
5569;SDS011;2808;51.240;6.794;2023-06-01T13:06:32;16.80;;;8.60;;
5569;SDS011;2808;51.240;6.794;2023-06-01T13:09:01;16.97;;;9.00;;
5569;SDS011;2808;51.240;6.794;2023-06-01T13:11:29;18.07;;;8.50;;
5569;SDS011;2808;51.240;6.794;2023-06-01T13:13:56;20.53;;;9.00;;
5569;SDS011;2808;51.240;6.794;2023-06-01T13:16:24;16.80;;;7.83;;
5569;SDS011;2808;51.240;6.794;2023-06-01T13:18:53;22.33;;;8.47;;
5569;SDS011;2808;51.240;6.794;2023-06-01T13:21:21;20.00;;;8.80;;
5569;SDS011;2808;51.240;6.794;2023-06-01T13:23:48;23.53;;;8.90;;
5569;SDS011;2808;51.240;6.794;2023-06-01T13:26:17;18.23;;;8.80;;
5569;SDS011;2808;51.240;6.794;2023-06-01T13:28:47;17.20;;;9.50;;
5569;SDS011;2808;51.240;6.794;2023-06-01T13:31:14;27.47;;;10.90;;
5569;SDS011;2808;51.240;6.794;2023-06-01T13:33:42;22.03;;;7.77;;
5569;SDS011;2808;51.240;6.794;2023-06-01T13:36:09;20.53;;;8.10;;
5569;SDS011;2808;51.240;6.794;2023-06-01T13:38:36;23.03;;;6.83;;
5569;SDS011;2808;51.240;6.794;2023-06-01T13:41:04;21.77;;;8.50;;
5569;SDS011;2808;51.240;6.794;2023-06-01T13:46:51;15.60;;;7.23;;
5569;SDS011;2808;51.240;6.794;2023-06-01T13:49:30;17.33;;;7.70;;
5569;SDS011;2808;51.240;6.794;2023-06-01T13:51:57;21.93;;;8.33;;
5569;SDS011;2808;51.240;6.794;2023-06-01T13:54:43;17.47;;;7.57;;
5569;SDS011;2808;51.240;6.794;2023-06-01T13:57:24;16.50;;;7.40;;
5569;SDS011;2808;51.240;6.794;2023-06-01T13:59:53;14.50;;;7.37;;
5569;SDS011;2808;51.240;6.794;2023-06-01T14:05:37;13.53;;;7.00;;
5569;SDS011;2808;51.240;6.794;2023-06-01T14:08:05;14.97;;;7.53;;
5569;SDS011;2808;51.240;6.794;2023-06-01T14:10:33;15.60;;;6.80;;
5569;SDS011;2808;51.240;6.794;2023-06-01T14:13:01;17.73;;;7.70;;
5569;SDS011;2808;51.240;6.794;2023-06-01T14:15:28;14.30;;;7.37;;
5569;SDS011;2808;51.240;6.794;2023-06-01T14:17:56;20.77;;;8.90;;
5569;SDS011;2808;51.240;6.794;2023-06-01T14:20:24;15.20;;;6.70;;
5569;SDS011;2808;51.240;6.794;2023-06-01T14:22:52;19.50;;;8.20;;
5569;SDS011;2808;51.240;6.794;2023-06-01T14:25:20;14.83;;;7.10;;
5569;SDS011;2808;51.240;6.794;2023-06-01T14:27:47;16.50;;;7.07;;
5569;SDS011;2808;51.240;6.794;2023-06-01T14:30:15;14.33;;;7.37;;
5569;SDS011;2808;51.240;6.794;2023-06-01T14:32:42;17.20;;;6.67;;
5569;SDS011;2808;51.240;6.794;2023-06-01T14:35:10;15.37;;;7.60;;
5569;SDS011;2808;51.240;6.794;2023-06-01T14:37:40;15.73;;;6.80;;
5569;SDS011;2808;51.240;6.794;2023-06-01T14:40:11;14.80;;;6.60;;
5569;SDS011;2808;51.240;6.794;2023-06-01T14:42:38;12.80;;;7.00;;
5569;SDS011;2808;51.240;6.794;2023-06-01T14:45:08;14.27;;;6.70;;
5569;SDS011;2808;51.240;6.794;2023-06-01T14:47:36;13.20;;;6.60;;
5569;SDS011;2808;51.240;6.794;2023-06-01T14:50:06;15.13;;;7.33;;
5569;SDS011;2808;51.240;6.794;2023-06-01T14:52:34;20.90;;;8.40;;
5569;SDS011;2808;51.240;6.794;2023-06-01T14:55:02;13.03;;;5.93;;
5569;SDS011;2808;51.240;6.794;2023-06-01T14:57:31;17.80;;;7.20;;
5569;SDS011;2808;51.240;6.794;2023-06-01T14:59:58;37.97;;;17.10;;
5569;SDS011;2808;51.240;6.794;2023-06-01T15:02:26;13.30;;;6.83;;
5569;SDS011;2808;51.240;6.794;2023-06-01T15:04:53;15.67;;;7.37;;
5569;SDS011;2808;51.240;6.794;2023-06-01T15:07:21;13.40;;;6.70;;
5569;SDS011;2808;51.240;6.794;2023-06-01T15:09:48;13.90;;;6.07;;
5569;SDS011;2808;51.240;6.794;2023-06-01T15:12:20;19.73;;;10.43;;
5569;SDS011;2808;51.240;6.794;2023-06-01T15:14:48;12.30;;;5.33;;
5569;SDS011;2808;51.240;6.794;2023-06-01T15:17:16;19.30;;;5.77;;
5569;SDS011;2808;51.240;6.794;2023-06-01T15:19:43;17.50;;;7.20;;
5569;SDS011;2808;51.240;6.794;2023-06-01T15:22:11;18.33;;;6.47;;
5569;SDS011;2808;51.240;6.794;2023-06-01T15:24:39;15.77;;;6.27;;
5569;SDS011;2808;51.240;6.794;2023-06-01T15:27:06;15.27;;;6.30;;
5569;SDS011;2808;51.240;6.794;2023-06-01T15:29:34;13.90;;;7.13;;